createdAt,value
2017-01-18T00:00:11.034Z,-5.62
2017-01-18T00:00:41.058Z,-5.66
2017-01-18T00:01:11.087Z,-5.69
2017-01-18T00:01:41.124Z,-5.64
2017-01-18T00:02:11.144Z,-5.64
2017-01-18T00:02:41.169Z,-5.66
2017-01-18T00:03:11.203Z,-5.66
2017-01-18T00:03:41.231Z,-5.67
2017-01-18T00:04:11.250Z,-5.66
2017-01-18T00:04:41.313Z,-5.66
2017-01-18T00:05:11.309Z,-5.63
2017-01-18T00:05:41.336Z,-5.6
2017-01-18T00:06:11.363Z,-5.66
2017-01-18T00:06:41.384Z,-5.75
2017-01-18T00:07:11.429Z,-5.7
2017-01-18T00:07:41.449Z,-5.64
2017-01-18T00:08:11.472Z,-5.64
2017-01-18T00:08:41.505Z,-5.73
2017-01-18T00:09:11.532Z,-5.71
2017-01-18T00:09:41.551Z,-5.78
2017-01-18T00:10:11.591Z,-5.63
2017-01-18T00:10:41.611Z,-5.67
2017-01-18T00:11:11.645Z,-5.69
2017-01-18T00:11:41.665Z,-5.69
2017-01-18T00:12:11.692Z,-5.77
2017-01-18T00:12:41.719Z,-5.67
2017-01-18T00:13:11.756Z,-5.8
2017-01-18T00:13:41.778Z,-5.67
2017-01-18T00:14:11.804Z,-5.64
2017-01-18T00:14:41.835Z,-5.64
2017-01-18T00:15:11.869Z,-5.78
2017-01-18T00:15:41.897Z,-5.7
2017-01-18T00:16:11.926Z,-5.73
2017-01-18T00:16:41.942Z,-5.77
2017-01-18T00:17:11.969Z,-5.71
2017-01-18T00:17:41.997Z,-5.7
2017-01-18T00:18:12.035Z,-5.69
2017-01-18T00:18:42.060Z,-5.73
2017-01-18T00:19:12.083Z,-5.78
2017-01-18T00:19:42.109Z,-5.75
2017-01-18T00:20:12.131Z,-5.75
2017-01-18T00:20:42.166Z,-5.75
2017-01-18T00:21:12.192Z,-5.81
2017-01-18T00:21:42.255Z,-5.7
2017-01-18T00:22:12.241Z,-5.71
2017-01-18T00:22:42.281Z,-5.82
2017-01-18T00:23:12.312Z,-5.8
2017-01-18T00:23:42.340Z,-5.71
2017-01-18T00:24:12.359Z,-5.77
2017-01-18T00:24:42.385Z,-5.71
2017-01-18T00:25:12.412Z,-5.78
2017-01-18T00:25:42.444Z,-5.78
2017-01-18T00:26:12.475Z,-5.77
2017-01-18T00:26:42.493Z,-5.71
2017-01-18T00:27:12.523Z,-5.71
2017-01-18T00:27:42.549Z,-5.77
2017-01-18T00:28:12.577Z,-5.8
2017-01-18T00:28:42.603Z,-5.85
2017-01-18T00:29:12.637Z,-5.78
2017-01-18T00:29:42.670Z,-5.8
2017-01-18T00:30:12.696Z,-5.77
2017-01-18T00:30:42.716Z,-5.71
2017-01-18T00:31:12.748Z,-5.78
2017-01-18T00:31:42.777Z,-5.84
2017-01-18T00:32:12.804Z,-5.78
2017-01-18T00:32:42.837Z,-5.82
2017-01-18T00:33:12.889Z,-5.78
2017-01-18T00:33:42.885Z,-5.82
2017-01-18T00:34:12.914Z,-5.77
2017-01-18T00:34:42.935Z,-5.73
2017-01-18T00:35:12.966Z,-5.82
2017-01-18T00:35:42.987Z,-5.78
2017-01-18T00:36:13.018Z,-5.75
2017-01-18T00:36:43.086Z,-5.75
2017-01-18T00:37:13.075Z,-5.75
2017-01-18T00:37:43.103Z,-5.8
2017-01-18T00:38:13.136Z,-5.78
2017-01-18T00:38:43.160Z,-5.78
2017-01-18T00:39:13.183Z,-5.81
2017-01-18T00:39:43.211Z,-5.77
2017-01-18T00:40:13.235Z,-5.78
2017-01-18T00:40:43.271Z,-5.84
2017-01-18T00:41:13.324Z,-5.77
2017-01-18T00:41:43.324Z,-5.85
2017-01-18T00:42:13.360Z,-5.82
2017-01-18T00:42:43.375Z,-5.85
2017-01-18T00:43:13.414Z,-5.78
2017-01-18T00:43:43.434Z,-5.71
2017-01-18T00:44:13.453Z,-5.8
2017-01-18T00:44:43.486Z,-5.78
2017-01-18T00:45:13.513Z,-5.82
2017-01-18T00:45:43.538Z,-5.78
2017-01-18T00:46:13.726Z,-5.77
2017-01-18T00:46:43.596Z,-5.77
2017-01-18T00:47:13.627Z,-5.77
2017-01-18T00:47:43.656Z,-5.7
2017-01-18T00:48:13.684Z,-5.77
2017-01-18T00:48:43.709Z,-5.78
2017-01-18T00:49:13.735Z,-5.8
2017-01-18T00:49:43.767Z,-5.66
2017-01-18T00:50:13.801Z,-5.67
2017-01-18T00:50:43.823Z,-5.67
2017-01-18T00:51:13.845Z,-5.62
2017-01-18T00:51:43.876Z,-5.6
2017-01-18T00:52:13.904Z,-5.7
2017-01-18T00:52:44.075Z,-5.6
2017-01-18T00:53:13.958Z,-5.66
2017-01-18T00:53:43.984Z,-5.64
2017-01-18T00:54:14.007Z,-5.6
2017-01-18T00:54:44.040Z,-5.62
2017-01-18T00:55:14.066Z,-5.6
2017-01-18T00:55:44.100Z,-5.62
2017-01-18T00:56:14.123Z,-5.59
2017-01-18T00:56:44.148Z,-5.53
2017-01-18T00:57:14.183Z,-5.57
2017-01-18T00:57:44.210Z,-5.6
2017-01-18T00:58:14.239Z,-5.6
2017-01-18T00:58:44.263Z,-5.62
2017-01-18T00:59:14.291Z,-5.55
2017-01-18T00:59:44.318Z,-5.62
2017-01-18T01:00:14.374Z,-5.57
2017-01-18T01:00:44.371Z,-5.64
2017-01-18T01:01:14.396Z,-5.6
2017-01-18T01:01:44.431Z,-5.6
2017-01-18T01:02:14.452Z,-5.62
2017-01-18T01:02:44.629Z,-5.62
2017-01-18T01:03:14.509Z,-5.59
2017-01-18T01:03:44.546Z,-5.62
2017-01-18T01:04:14.571Z,-5.59
2017-01-18T01:04:44.595Z,-5.57
2017-01-18T01:05:14.618Z,-5.52
2017-01-18T01:05:44.655Z,-5.52
2017-01-18T01:06:14.675Z,-5.52
2017-01-18T01:06:44.705Z,-5.52
2017-01-18T01:07:14.734Z,-5.55
2017-01-18T01:07:44.761Z,-5.53
2017-01-18T01:08:14.788Z,-5.57
2017-01-18T01:08:44.817Z,-5.57
2017-01-18T01:09:14.848Z,-5.51
2017-01-18T01:09:44.872Z,-5.45
2017-01-18T01:10:14.903Z,-5.53
2017-01-18T01:10:44.932Z,-5.43
2017-01-18T01:11:15.102Z,-5.48
2017-01-18T01:11:44.979Z,-5.42
2017-01-18T01:12:15.008Z,-5.35
2017-01-18T01:12:45.029Z,-5.45
2017-01-18T01:13:15.065Z,-5.48
2017-01-18T01:13:45.093Z,-5.45
2017-01-18T01:14:15.118Z,-5.45
2017-01-18T01:14:45.151Z,-5.39
2017-01-18T01:15:15.176Z,-5.45
2017-01-18T01:15:45.204Z,-5.41
2017-01-18T01:16:15.238Z,-5.43
2017-01-18T01:16:45.256Z,-5.45
2017-01-18T01:17:15.287Z,-5.39
2017-01-18T01:17:45.323Z,-5.43
2017-01-18T01:18:15.360Z,-5.31
2017-01-18T01:18:45.366Z,-5.28
2017-01-18T01:19:15.394Z,-5.33
2017-01-18T01:19:45.427Z,-5.3
2017-01-18T01:20:15.452Z,-5.3
2017-01-18T01:20:45.479Z,-5.16
2017-01-18T01:21:15.518Z,-5.24
2017-01-18T01:21:45.566Z,-5.3
2017-01-18T01:22:15.562Z,-5.35
2017-01-18T01:22:45.587Z,-5.28
2017-01-18T01:23:15.623Z,-5.24
2017-01-18T01:23:45.653Z,-5.25
2017-01-18T01:24:15.678Z,-5.3
2017-01-18T01:24:45.703Z,-5.34
2017-01-18T01:25:15.728Z,-5.28
2017-01-18T01:25:45.905Z,-5.27
2017-01-18T01:26:15.786Z,-5.2
2017-01-18T01:26:45.814Z,-5.28
2017-01-18T01:27:15.843Z,-5.24
2017-01-18T01:27:45.870Z,-5.24
2017-01-18T01:28:15.899Z,-5.2
2017-01-18T01:28:45.922Z,-5.21
2017-01-18T01:29:15.949Z,-5.24
2017-01-18T01:29:45.977Z,-5.17
2017-01-18T01:30:16.013Z,-5.17
2017-01-18T01:30:46.039Z,-5.2
2017-01-18T01:31:16.065Z,-5.13
2017-01-18T01:31:46.088Z,-5.05
2017-01-18T01:32:16.117Z,-5.21
2017-01-18T01:32:46.149Z,-5.11
2017-01-18T01:33:16.171Z,-5.09
2017-01-18T01:33:46.208Z,-5.2
2017-01-18T01:34:16.227Z,-5.12
2017-01-18T01:34:46.275Z,-5.2
2017-01-18T01:35:16.292Z,-5.12
2017-01-18T01:35:46.309Z,-5.13
2017-01-18T01:36:16.344Z,-5.13
2017-01-18T01:36:46.367Z,-5.13
2017-01-18T01:37:16.397Z,-5.05
2017-01-18T01:37:46.423Z,-5.16
2017-01-18T01:38:16.453Z,-5.12
2017-01-18T01:38:46.833Z,-5.16
2017-01-18T01:39:16.506Z,-5.13
2017-01-18T01:39:46.538Z,-5.2
2017-01-18T01:40:16.564Z,-5.06
2017-01-18T01:40:46.589Z,-5.11
2017-01-18T01:41:16.618Z,-5.17
2017-01-18T01:41:46.645Z,-5.17
2017-01-18T01:42:16.675Z,-5.13
2017-01-18T01:42:46.703Z,-5.05
2017-01-18T01:43:16.728Z,-5.02
2017-01-18T01:43:46.766Z,-5.05
2017-01-18T01:44:16.785Z,-5.05
2017-01-18T01:44:46.810Z,-5.12
2017-01-18T01:45:16.833Z,-5.06
2017-01-18T01:45:46.872Z,-5.01
2017-01-18T01:46:16.916Z,-5.02
2017-01-18T01:46:46.927Z,-5.02
2017-01-18T01:47:16.955Z,-5.03
2017-01-18T01:47:46.984Z,-5.01
2017-01-18T01:48:17.011Z,-5.02
2017-01-18T01:48:47.036Z,-4.94
2017-01-18T01:49:17.074Z,-4.99
2017-01-18T01:49:47.092Z,-5.01
2017-01-18T01:50:17.122Z,-5.02
2017-01-18T01:50:47.149Z,-5.03
2017-01-18T01:51:17.175Z,-5.05
2017-01-18T01:51:47.204Z,-5.09
2017-01-18T01:52:17.229Z,-5.01
2017-01-18T01:52:47.262Z,-4.97
2017-01-18T01:53:17.286Z,-4.87
2017-01-18T01:53:47.322Z,-4.88
2017-01-18T01:54:17.342Z,-4.87
2017-01-18T01:54:47.367Z,-4.9
2017-01-18T01:55:17.392Z,-4.87
2017-01-18T01:55:47.430Z,-4.74
2017-01-18T01:56:17.452Z,-4.84
2017-01-18T01:56:47.478Z,-4.84
2017-01-18T01:57:17.506Z,-4.76
2017-01-18T01:57:47.533Z,-4.81
2017-01-18T01:58:17.573Z,-4.79
2017-01-18T01:58:47.625Z,-4.73
2017-01-18T01:59:17.621Z,-4.74
2017-01-18T01:59:47.655Z,-4.74
2017-01-18T02:00:17.675Z,-4.79
2017-01-18T02:00:47.701Z,-4.72
2017-01-18T02:01:17.734Z,-4.72
2017-01-18T02:01:47.759Z,-4.74
2017-01-18T02:02:17.791Z,-4.79
2017-01-18T02:02:47.811Z,-4.73
2017-01-18T02:03:17.839Z,-4.74
2017-01-18T02:03:47.869Z,-4.63
2017-01-18T02:04:17.900Z,-4.69
2017-01-18T02:04:47.926Z,-4.73
2017-01-18T02:05:17.955Z,-4.66
2017-01-18T02:05:47.983Z,-4.63
2017-01-18T02:06:18.011Z,-4.58
2017-01-18T02:06:48.039Z,-4.66
2017-01-18T02:07:18.065Z,-4.58
2017-01-18T02:07:48.095Z,-4.63
2017-01-18T02:08:18.121Z,-4.67
2017-01-18T02:08:48.163Z,-4.59
2017-01-18T02:09:18.183Z,-4.67
2017-01-18T02:09:48.205Z,-4.63
2017-01-18T02:10:18.233Z,-4.65
2017-01-18T02:10:48.294Z,-4.62
2017-01-18T02:11:18.287Z,-4.63
2017-01-18T02:11:48.313Z,-4.63
2017-01-18T02:12:18.342Z,-4.65
2017-01-18T02:12:48.377Z,-4.62
2017-01-18T02:13:18.402Z,-4.58
2017-01-18T02:13:48.434Z,-4.59
2017-01-18T02:14:18.468Z,-4.54
2017-01-18T02:14:48.486Z,-4.55
2017-01-18T02:15:18.512Z,-4.52
2017-01-18T02:15:48.540Z,-4.49
2017-01-18T02:16:18.573Z,-4.52
2017-01-18T02:16:48.595Z,-4.49
2017-01-18T02:17:18.622Z,-4.46
2017-01-18T02:17:48.651Z,-4.48
2017-01-18T02:18:18.678Z,-4.44
2017-01-18T02:18:48.705Z,-4.46
2017-01-18T02:19:18.735Z,-4.41
2017-01-18T02:19:48.769Z,-4.36
2017-01-18T02:20:18.794Z,-4.51
2017-01-18T02:20:48.819Z,-4.45
2017-01-18T02:21:18.854Z,-4.45
2017-01-18T02:21:48.873Z,-4.36
2017-01-18T02:22:18.905Z,-4.38
2017-01-18T02:22:48.928Z,-4.41
2017-01-18T02:23:18.960Z,-4.4
2017-01-18T02:23:48.987Z,-4.38
2017-01-18T02:24:19.014Z,-4.34
2017-01-18T02:24:49.039Z,-4.3
2017-01-18T02:25:19.072Z,-4.31
2017-01-18T02:25:49.096Z,-4.33
2017-01-18T02:26:19.135Z,-4.33
2017-01-18T02:26:49.181Z,-4.31
2017-01-18T02:27:19.178Z,-4.33
2017-01-18T02:27:49.212Z,-4.33
2017-01-18T02:28:19.236Z,-4.26
2017-01-18T02:28:49.271Z,-4.27
2017-01-18T02:29:19.293Z,-4.23
2017-01-18T02:29:49.321Z,-4.27
2017-01-18T02:30:19.346Z,-4.27
2017-01-18T02:30:49.384Z,-4.27
2017-01-18T02:31:19.415Z,-4.2
2017-01-18T02:31:49.440Z,-4.23
2017-01-18T02:32:19.464Z,-4.26
2017-01-18T02:32:49.490Z,-4.26
2017-01-18T02:33:19.520Z,-4.3
2017-01-18T02:33:49.545Z,-4.23
2017-01-18T02:34:19.576Z,-4.27
2017-01-18T02:34:49.603Z,-4.17
2017-01-18T02:35:19.634Z,-4.17
2017-01-18T02:35:49.660Z,-4.2
2017-01-18T02:36:19.693Z,-4.19
2017-01-18T02:36:49.713Z,-4.22
2017-01-18T02:37:19.747Z,-4.17
2017-01-18T02:37:49.772Z,-4.12
2017-01-18T02:38:19.802Z,-4.07
2017-01-18T02:38:49.829Z,-4.17
2017-01-18T02:39:19.858Z,-4.12
2017-01-18T02:39:49.880Z,-4.23
2017-01-18T02:40:19.907Z,-4.16
2017-01-18T02:40:49.944Z,-4.19
2017-01-18T02:41:19.974Z,-4.15
2017-01-18T02:41:50.002Z,-4.13
2017-01-18T02:42:20.028Z,-4.04
2017-01-18T02:42:50.055Z,-4.15
2017-01-18T02:43:20.084Z,-4.13
2017-01-18T02:43:50.106Z,-4.1
2017-01-18T02:44:20.140Z,-4.04
2017-01-18T02:44:50.168Z,-4.04
2017-01-18T02:45:20.200Z,-4.09
2017-01-18T02:45:50.220Z,-4.04
2017-01-18T02:46:20.250Z,-4.06
2017-01-18T02:46:50.279Z,-4.07
2017-01-18T02:47:20.308Z,-4.06
2017-01-18T02:47:50.332Z,-3.98
2017-01-18T02:48:20.365Z,-4.04
2017-01-18T02:48:50.391Z,-4.02
2017-01-18T02:49:20.421Z,-3.97
2017-01-18T02:49:50.454Z,-4.01
2017-01-18T02:50:20.477Z,-4.07
2017-01-18T02:50:50.502Z,-4.04
2017-01-18T02:51:20.532Z,-4.01
2017-01-18T02:51:50.564Z,-4.02
2017-01-18T02:52:20.588Z,-3.97
2017-01-18T02:52:50.614Z,-4.04
2017-01-18T02:53:20.645Z,-3.98
2017-01-18T02:53:50.685Z,-3.99
2017-01-18T02:54:20.703Z,-3.86
2017-01-18T02:54:50.758Z,-3.89
2017-01-18T02:55:20.755Z,-3.91
2017-01-18T02:55:50.792Z,-4.01
2017-01-18T02:56:20.812Z,-4.02
2017-01-18T02:56:50.841Z,-3.91
2017-01-18T02:57:20.867Z,-3.97
2017-01-18T02:57:50.906Z,-3.92
2017-01-18T02:58:20.926Z,-3.97
2017-01-18T02:58:50.954Z,-3.95
2017-01-18T02:59:20.978Z,-3.92
2017-01-18T02:59:51.012Z,-3.95
2017-01-18T03:00:21.041Z,-3.91
2017-01-18T03:00:51.072Z,-3.95
2017-01-18T03:01:21.096Z,-3.91
2017-01-18T03:01:51.128Z,-3.98
2017-01-18T03:02:21.147Z,-3.91
2017-01-18T03:02:51.212Z,-3.97
2017-01-18T03:03:21.206Z,-3.91
2017-01-18T03:03:51.238Z,-3.89
2017-01-18T03:04:21.263Z,-3.83
2017-01-18T03:04:51.287Z,-3.79
2017-01-18T03:05:21.315Z,-3.81
2017-01-18T03:05:51.354Z,-3.91
2017-01-18T03:06:21.406Z,-3.89
2017-01-18T03:06:51.414Z,-3.91
2017-01-18T03:07:21.433Z,-3.91
2017-01-18T03:07:51.461Z,-3.86
2017-01-18T03:08:21.483Z,-3.91
2017-01-18T03:08:51.522Z,-3.88
2017-01-18T03:09:21.543Z,-3.94
2017-01-18T03:09:51.574Z,-3.94
2017-01-18T03:10:21.601Z,-3.89
2017-01-18T03:10:51.632Z,-3.92
2017-01-18T03:11:21.655Z,-3.95
2017-01-18T03:11:51.680Z,-3.97
2017-01-18T03:12:21.713Z,-3.91
2017-01-18T03:12:51.742Z,-3.91
2017-01-18T03:13:21.762Z,-3.92
2017-01-18T03:13:51.796Z,-3.81
2017-01-18T03:14:21.830Z,-3.81
2017-01-18T03:14:51.857Z,-3.86
2017-01-18T03:15:21.883Z,-3.86
2017-01-18T03:15:51.910Z,-3.83
2017-01-18T03:16:21.937Z,-3.88
2017-01-18T03:16:51.966Z,-3.83
2017-01-18T03:17:21.995Z,-3.86
2017-01-18T03:17:52.026Z,-3.94
2017-01-18T03:18:22.055Z,-3.91
2017-01-18T03:18:52.084Z,-3.91
2017-01-18T03:19:22.108Z,-3.89
2017-01-18T03:19:52.135Z,-3.91
2017-01-18T03:20:22.162Z,-3.89
2017-01-18T03:20:52.217Z,-3.92
2017-01-18T03:21:22.218Z,-3.91
2017-01-18T03:21:52.236Z,-3.88
2017-01-18T03:22:22.274Z,-3.92
2017-01-18T03:22:52.302Z,-3.95
2017-01-18T03:23:22.335Z,-3.95
2017-01-18T03:23:52.356Z,-3.94
2017-01-18T03:24:22.390Z,-3.95
2017-01-18T03:24:52.422Z,-3.94
2017-01-18T03:25:22.449Z,-4.01
2017-01-18T03:25:52.470Z,-3.98
2017-01-18T03:26:22.505Z,-4.01
2017-01-18T03:26:52.533Z,-3.92
2017-01-18T03:27:22.558Z,-4.01
2017-01-18T03:27:52.584Z,-4.02
2017-01-18T03:28:22.622Z,-3.95
2017-01-18T03:28:52.640Z,-4.04
2017-01-18T03:29:22.673Z,-4.09
2017-01-18T03:29:52.697Z,-4.04
2017-01-18T03:30:22.721Z,-4.1
2017-01-18T03:30:52.749Z,-4.04
2017-01-18T03:31:22.782Z,-4.13
2017-01-18T03:31:52.815Z,-4.13
2017-01-18T03:32:22.834Z,-4.2
2017-01-18T03:32:52.863Z,-4.17
2017-01-18T03:33:22.897Z,-4.13
2017-01-18T03:33:52.923Z,-4.15
2017-01-18T03:34:22.950Z,-4.23
2017-01-18T03:34:52.977Z,-4.12
2017-01-18T03:35:23.001Z,-4.16
2017-01-18T03:35:53.032Z,-4.17
2017-01-18T03:36:23.058Z,-4.16
2017-01-18T03:36:53.090Z,-4.2
2017-01-18T03:37:23.116Z,-4.2
2017-01-18T03:37:53.146Z,-4.27
2017-01-18T03:38:23.171Z,-4.27
2017-01-18T03:38:53.201Z,-4.31
2017-01-18T03:39:23.375Z,-4.26
2017-01-18T03:39:53.257Z,-4.31
2017-01-18T03:40:23.285Z,-4.34
2017-01-18T03:40:53.313Z,-4.34
2017-01-18T03:41:23.339Z,-4.3
2017-01-18T03:41:53.373Z,-4.36
2017-01-18T03:42:23.397Z,-4.3
2017-01-18T03:42:53.439Z,-4.33
2017-01-18T03:43:23.449Z,-4.33
2017-01-18T03:43:53.480Z,-4.33
2017-01-18T03:44:23.462Z,-4.31
2017-01-18T03:44:53.536Z,-4.4
2017-01-18T03:45:23.561Z,-4.4
2017-01-18T03:45:53.620Z,-4.44
2017-01-18T03:46:23.613Z,-4.41
2017-01-18T03:46:53.645Z,-4.41
2017-01-18T03:47:23.679Z,-4.45
2017-01-18T03:47:53.710Z,-4.41
2017-01-18T03:48:23.738Z,-4.51
2017-01-18T03:48:53.761Z,-4.54
2017-01-18T03:49:23.792Z,-4.46
2017-01-18T03:49:53.811Z,-4.45
2017-01-18T03:50:23.840Z,-4.49
2017-01-18T03:50:53.870Z,-4.37
2017-01-18T03:51:23.898Z,-4.34
2017-01-18T03:51:53.924Z,-4.44
2017-01-18T03:52:23.949Z,-4.52
2017-01-18T03:52:53.979Z,-4.48
2017-01-18T03:53:24.016Z,-4.52
2017-01-18T03:53:54.039Z,-4.62
2017-01-18T03:54:24.065Z,-4.52
2017-01-18T03:54:54.094Z,-4.52
2017-01-18T03:55:24.114Z,-4.54
2017-01-18T03:55:54.153Z,-4.65
2017-01-18T03:56:24.176Z,-4.63
2017-01-18T03:56:54.204Z,-4.63
2017-01-18T03:57:24.236Z,-4.69
2017-01-18T03:57:54.256Z,-4.56
2017-01-18T03:58:24.285Z,-4.67
2017-01-18T03:58:54.311Z,-4.69
2017-01-18T03:59:24.346Z,-4.63
2017-01-18T03:59:54.368Z,-4.67
2017-01-18T04:00:24.402Z,-4.69
2017-01-18T04:00:54.423Z,-4.73
2017-01-18T04:01:24.456Z,-4.67
2017-01-18T04:01:54.490Z,-4.73
2017-01-18T04:02:24.512Z,-4.69
2017-01-18T04:02:54.540Z,-4.76
2017-01-18T04:03:24.565Z,-4.72
2017-01-18T04:03:54.591Z,-4.67
2017-01-18T04:04:24.623Z,-4.58
2017-01-18T04:04:54.653Z,-4.67
2017-01-18T04:05:24.674Z,-4.69
2017-01-18T04:05:54.715Z,-4.66
2017-01-18T04:06:24.737Z,-4.72
2017-01-18T04:06:54.766Z,-4.63
2017-01-18T04:07:24.789Z,-4.69
2017-01-18T04:07:54.818Z,-4.69
2017-01-18T04:08:24.847Z,-4.7
2017-01-18T04:08:54.873Z,-4.67
2017-01-18T04:09:24.900Z,-4.67
2017-01-18T04:09:54.928Z,-4.62
2017-01-18T04:10:24.952Z,-4.69
2017-01-18T04:10:54.987Z,-4.67
2017-01-18T04:11:25.011Z,-4.67
2017-01-18T04:11:55.038Z,-4.72
2017-01-18T04:12:25.062Z,-4.79
2017-01-18T04:12:55.092Z,-4.79
2017-01-18T04:13:25.124Z,-4.72
2017-01-18T04:13:55.151Z,-4.74
2017-01-18T04:14:25.174Z,-4.7
2017-01-18T04:14:55.202Z,-4.72
2017-01-18T04:15:25.231Z,-4.76
2017-01-18T04:15:55.261Z,-4.73
2017-01-18T04:16:25.284Z,-4.74
2017-01-18T04:16:55.318Z,-4.79
2017-01-18T04:17:25.341Z,-4.77
2017-01-18T04:17:55.373Z,-4.74
2017-01-18T04:18:25.399Z,-4.76
2017-01-18T04:18:55.425Z,-4.79
2017-01-18T04:19:25.456Z,-4.83
2017-01-18T04:19:55.478Z,-4.79
2017-01-18T04:20:25.515Z,-4.77
2017-01-18T04:20:55.534Z,-4.81
2017-01-18T04:21:25.566Z,-4.84
2017-01-18T04:21:55.590Z,-4.79
2017-01-18T04:22:25.619Z,-4.83
2017-01-18T04:22:55.647Z,-4.85
2017-01-18T04:23:25.674Z,-4.84
2017-01-18T04:23:55.708Z,-4.87
2017-01-18T04:24:25.730Z,-4.83
2017-01-18T04:24:55.766Z,-4.84
2017-01-18T04:25:25.785Z,-4.87
2017-01-18T04:25:55.810Z,-4.87
2017-01-18T04:26:25.841Z,-4.87
2017-01-18T04:26:55.875Z,-4.87
2017-01-18T04:27:25.899Z,-4.85
2017-01-18T04:27:55.929Z,-4.84
2017-01-18T04:28:25.951Z,-4.81
2017-01-18T04:28:55.982Z,-4.85
2017-01-18T04:29:26.008Z,-4.9
2017-01-18T04:29:56.038Z,-4.9
2017-01-18T04:30:26.061Z,-4.9
2017-01-18T04:30:56.090Z,-4.87
2017-01-18T04:31:26.116Z,-4.91
2017-01-18T04:31:56.145Z,-4.88
2017-01-18T04:32:26.173Z,-4.84
2017-01-18T04:32:56.209Z,-4.91
2017-01-18T04:33:26.229Z,-4.93
2017-01-18T04:33:56.267Z,-4.84
2017-01-18T04:34:26.291Z,-4.87
2017-01-18T04:34:56.311Z,-4.94
2017-01-18T04:35:26.338Z,-4.93
2017-01-18T04:35:56.371Z,-4.88
2017-01-18T04:36:26.398Z,-4.91
2017-01-18T04:36:56.422Z,-4.88
2017-01-18T04:37:26.455Z,-4.88
2017-01-18T04:37:56.473Z,-4.84
2017-01-18T04:38:26.509Z,-4.87
2017-01-18T04:38:56.537Z,-4.91
2017-01-18T04:39:26.564Z,-4.85
2017-01-18T04:39:56.596Z,-4.88
2017-01-18T04:40:26.617Z,-4.87
2017-01-18T04:40:56.641Z,-4.91
2017-01-18T04:41:26.671Z,-4.9
2017-01-18T04:41:56.703Z,-4.91
2017-01-18T04:42:26.732Z,-4.91
2017-01-18T04:42:56.758Z,-4.85
2017-01-18T04:43:26.784Z,-4.84
2017-01-18T04:43:56.812Z,-4.93
2017-01-18T04:44:26.842Z,-4.85
2017-01-18T04:44:56.867Z,-4.87
2017-01-18T04:45:26.902Z,-4.91
2017-01-18T04:45:56.925Z,-4.87
2017-01-18T04:46:26.945Z,-4.88
2017-01-18T04:46:56.978Z,-4.91
2017-01-18T04:47:27.017Z,-4.84
2017-01-18T04:47:57.027Z,-4.88
2017-01-18T04:48:27.063Z,-4.87
2017-01-18T04:48:57.085Z,-4.88
2017-01-18T04:49:27.118Z,-4.87
2017-01-18T04:49:57.149Z,-4.88
2017-01-18T04:50:27.168Z,-4.88
2017-01-18T04:50:57.190Z,-4.93
2017-01-18T04:51:27.228Z,-4.91
2017-01-18T04:51:57.254Z,-4.84
2017-01-18T04:52:27.278Z,-4.87
2017-01-18T04:52:57.310Z,-4.87
2017-01-18T04:53:27.333Z,-4.85
2017-01-18T04:53:57.370Z,-4.93
2017-01-18T04:54:27.397Z,-4.88
2017-01-18T04:54:57.420Z,-4.9
2017-01-18T04:55:27.450Z,-5.01
2017-01-18T04:55:57.483Z,-4.9
2017-01-18T04:56:27.507Z,-4.93
2017-01-18T04:56:57.537Z,-4.95
2017-01-18T04:57:27.556Z,-4.88
2017-01-18T04:57:57.581Z,-4.91
2017-01-18T04:58:27.613Z,-4.85
2017-01-18T04:58:57.647Z,-4.94
2017-01-18T04:59:27.672Z,-4.91
2017-01-18T04:59:57.699Z,-4.88
2017-01-18T05:00:27.723Z,-4.9
2017-01-18T05:00:57.755Z,-4.87
2017-01-18T05:01:27.780Z,-4.9
2017-01-18T05:01:57.811Z,-4.88
2017-01-18T05:02:27.838Z,-4.91
2017-01-18T05:02:57.866Z,-4.85
2017-01-18T05:03:27.889Z,-4.91
2017-01-18T05:03:57.922Z,-4.81
2017-01-18T05:04:27.948Z,-4.79
2017-01-18T05:04:57.976Z,-4.74
2017-01-18T05:05:28.000Z,-4.73
2017-01-18T05:05:58.037Z,-4.76
2017-01-18T05:06:28.055Z,-4.77
2017-01-18T05:06:58.086Z,-4.76
2017-01-18T05:07:28.112Z,-4.76
2017-01-18T05:07:58.138Z,-4.72
2017-01-18T05:08:28.182Z,-4.73
2017-01-18T05:08:58.205Z,-4.72
2017-01-18T05:09:28.226Z,-4.73
2017-01-18T05:09:58.247Z,-4.79
2017-01-18T05:10:28.279Z,-4.72
2017-01-18T05:10:58.309Z,-4.67
2017-01-18T05:11:28.341Z,-4.73
2017-01-18T05:11:58.367Z,-4.63
2017-01-18T05:12:28.389Z,-4.69
2017-01-18T05:12:58.409Z,-4.62
2017-01-18T05:13:28.443Z,-4.65
2017-01-18T05:13:58.475Z,-4.59
2017-01-18T05:14:28.500Z,-4.72
2017-01-18T05:14:58.534Z,-4.65
2017-01-18T05:15:28.560Z,-4.58
2017-01-18T05:15:58.583Z,-4.65
2017-01-18T05:16:28.611Z,-4.58
2017-01-18T05:16:58.646Z,-4.65
2017-01-18T05:17:28.670Z,-4.65
2017-01-18T05:17:58.703Z,-4.55
2017-01-18T05:18:28.716Z,-4.55
2017-01-18T05:18:58.756Z,-4.59
2017-01-18T05:19:28.785Z,-4.52
2017-01-18T05:19:58.814Z,-4.46
2017-01-18T05:20:28.838Z,-4.49
2017-01-18T05:20:58.859Z,-4.49
2017-01-18T05:21:28.896Z,-4.52
2017-01-18T05:21:58.925Z,-4.52
2017-01-18T05:22:28.948Z,-4.49
2017-01-18T05:22:58.978Z,-4.52
2017-01-18T05:23:29.007Z,-4.52
2017-01-18T05:23:59.032Z,-4.52
2017-01-18T05:24:29.061Z,-4.58
2017-01-18T05:24:59.085Z,-4.65
2017-01-18T05:25:29.115Z,-4.56
2017-01-18T05:25:59.143Z,-4.55
2017-01-18T05:26:29.170Z,-4.54
2017-01-18T05:26:59.206Z,-4.52
2017-01-18T05:27:29.224Z,-4.49
2017-01-18T05:27:59.258Z,-4.48
2017-01-18T05:28:29.279Z,-4.63
2017-01-18T05:28:59.301Z,-4.59
2017-01-18T05:29:29.342Z,-4.49
2017-01-18T05:29:59.366Z,-4.59
2017-01-18T05:30:29.390Z,-4.51
2017-01-18T05:30:59.421Z,-4.48
2017-01-18T05:31:29.450Z,-4.52
2017-01-18T05:31:59.479Z,-4.46
2017-01-18T05:32:29.507Z,-4.44
2017-01-18T05:32:59.531Z,-4.51
2017-01-18T05:33:29.567Z,-4.48
2017-01-18T05:33:59.593Z,-4.56
2017-01-18T05:34:29.610Z,-4.55
2017-01-18T05:34:59.640Z,-4.49
2017-01-18T05:35:29.674Z,-4.41
2017-01-18T05:35:59.707Z,-4.49
2017-01-18T05:36:29.726Z,-4.52
2017-01-18T05:36:59.786Z,-4.46
2017-01-18T05:37:29.788Z,-4.46
2017-01-18T05:37:59.807Z,-4.38
2017-01-18T05:38:29.837Z,-4.48
2017-01-18T05:38:59.864Z,-4.48
2017-01-18T05:39:29.899Z,-4.48
2017-01-18T05:39:59.927Z,-4.36
2017-01-18T05:40:29.949Z,-4.36
2017-01-18T05:40:59.975Z,-4.44
2017-01-18T05:41:30.013Z,-4.36
2017-01-18T05:42:00.032Z,-4.31
2017-01-18T05:42:30.066Z,-4.3
2017-01-18T05:43:00.093Z,-4.31
2017-01-18T05:43:30.125Z,-4.37
2017-01-18T05:44:00.298Z,-4.3
2017-01-18T05:44:30.175Z,-4.28
2017-01-18T05:45:00.204Z,-4.27
2017-01-18T05:45:30.226Z,-4.28
2017-01-18T05:46:00.260Z,-4.27
2017-01-18T05:46:30.290Z,-4.3
2017-01-18T05:47:00.316Z,-4.23
2017-01-18T05:47:30.343Z,-4.23
2017-01-18T05:48:00.371Z,-4.26
2017-01-18T05:48:30.401Z,-4.27
2017-01-18T05:49:00.431Z,-4.23
2017-01-18T05:49:30.449Z,-4.26
2017-01-18T05:50:00.482Z,-4.22
2017-01-18T05:50:30.516Z,-4.27
2017-01-18T05:51:00.534Z,-4.2
2017-01-18T05:51:30.567Z,-4.26
2017-01-18T05:52:00.593Z,-4.26
2017-01-18T05:52:30.617Z,-4.23
2017-01-18T05:53:00.648Z,-4.23
2017-01-18T05:53:30.684Z,-4.16
2017-01-18T05:54:00.704Z,-4.2
2017-01-18T05:54:30.735Z,-4.16
2017-01-18T05:55:00.761Z,-4.13
2017-01-18T05:55:30.788Z,-4.15
2017-01-18T05:56:00.810Z,-4.16
2017-01-18T05:56:30.841Z,-4.19
2017-01-18T05:57:01.023Z,-4.13
2017-01-18T05:57:30.903Z,-4.15
2017-01-18T05:58:00.932Z,-4.26
2017-01-18T05:58:30.956Z,-4.15
2017-01-18T05:59:01.136Z,-4.27
2017-01-18T05:59:31.017Z,-4.3
2017-01-18T06:00:01.041Z,-4.27
2017-01-18T06:00:31.070Z,-4.19
2017-01-18T06:01:01.098Z,-4.23
2017-01-18T06:01:31.121Z,-4.19
2017-01-18T06:02:01.156Z,-4.22
2017-01-18T06:02:31.179Z,-4.17
2017-01-18T06:03:01.207Z,-4.2
2017-01-18T06:03:31.237Z,-4.23
2017-01-18T06:04:01.297Z,-4.19
2017-01-18T06:04:31.295Z,-4.19
2017-01-18T06:05:01.327Z,-4.17
2017-01-18T06:05:31.348Z,-4.17
2017-01-18T06:06:01.376Z,-4.16
2017-01-18T06:06:31.409Z,-4.2
2017-01-18T06:07:01.437Z,-4.19
2017-01-18T06:07:31.465Z,-4.17
2017-01-18T06:08:01.740Z,-4.15
2017-01-18T06:08:31.546Z,-4.22
2017-01-18T06:09:01.743Z,-4.26
2017-01-18T06:09:31.577Z,-4.13
2017-01-18T06:10:01.601Z,-4.22
2017-01-18T06:10:31.628Z,-4.07
2017-01-18T06:11:01.858Z,-4.23
2017-01-18T06:11:31.686Z,-4.15
2017-01-18T06:12:01.716Z,-4.26
2017-01-18T06:12:31.770Z,-4.28
2017-01-18T06:13:01.771Z,-4.16
2017-01-18T06:13:31.807Z,-4.13
2017-01-18T06:14:01.828Z,-4.15
2017-01-18T06:14:31.855Z,-4.17
2017-01-18T06:15:01.879Z,-4.2
2017-01-18T06:15:31.905Z,-4.2
2017-01-18T06:16:01.939Z,-4.15
2017-01-18T06:16:31.962Z,-4.12
2017-01-18T06:17:02.298Z,-4.12
2017-01-18T06:17:32.019Z,-4.2
2017-01-18T06:18:02.349Z,-4.13
2017-01-18T06:18:32.073Z,-4.2
2017-01-18T06:19:02.109Z,-4.23
2017-01-18T06:19:32.135Z,-4.23
2017-01-18T06:20:02.168Z,-4.15
2017-01-18T06:20:32.189Z,-4.16
2017-01-18T06:21:02.212Z,-4.16
2017-01-18T06:21:32.250Z,-4.2
2017-01-18T06:22:02.425Z,-4.16
2017-01-18T06:22:32.301Z,-4.17
2017-01-18T06:23:02.330Z,-4.2
2017-01-18T06:23:32.352Z,-4.22
2017-01-18T06:24:02.642Z,-4.2
2017-01-18T06:24:32.413Z,-4.23
2017-01-18T06:25:02.497Z,-4.23
2017-01-18T06:25:32.472Z,-4.27
2017-01-18T06:26:02.746Z,-4.26
2017-01-18T06:26:32.525Z,-4.22
2017-01-18T06:27:02.550Z,-4.26
2017-01-18T06:27:32.591Z,-4.27
2017-01-18T06:28:02.755Z,-4.31